Alburnett, Iowa
Current Conditions -  °F | °C
As of 4:52 AM on Sunday 23 Nov 2014 (Local Time) from KCID Reporting Station
Haze Haze  
Wind Chill: 50°   Ceiling: 300
Heat Index: 50°   Visibility: 4mi
Dew Point: 50°   Wind: 13mph
Humidity: 100%   Direction: 180°S
Pressure: 29.61"   Gusts: NA
Location:  42.15°N, 91.62°W
Report Text: KCID 231052Z 18011KT 4SM BR OVC003 10/10 A2961 RMK AO2 SLP030 T01000100
Loading
Personal Weather Stations






























Interactive Weather Map New forecast layout! Learn more

10-Day Weather Forecast

Advertisements
Track Severe Weather on mobile